Júnior Lima

Chief Scout - Fluminense
22 Feb 2028
Tuesday
Process

Personality

Adaptability (15) Ambition (13) Controversy (6) Loyalty (18) Pressure (9) Professionalism (19) Sportsmanship (6) Temperament (1)

Profile

Coaching Style Democratic
License National A
Determination 10
Man Management 7
Motivating 7
Discipline 8
Job Satisfaction
100%
Fatigue
0%
Role Chief Scout
Wage 72.1K p/w
Contract 14.03.2029

Performance

Behaviour Good
Training Effectiveness
60%
Player Development
55%
Injury Prevention
25%
Tactical Implementation
55%

Recent Events

Attended a recruitment meeting now
Recommended a transfer target now
Recommended a transfer target now
Attended a recruitment meeting 7d ago
Recommended a transfer target 7d ago
Recommended a transfer target 7d ago
Recommended a transfer target 7d ago
Recommended a transfer target 7d ago

Currently Monitoring

300
Player Club Status Ability Confidence Watched Last Observed Latest Vote
José Hurtado Bragantino Active 131 / 136 40% 11 10.02.2028 -
Adam Wharton Crystal Palace Active 156 / 162 40% 5 10.02.2028 -
Paulo Henrique Vasco da Gama Active 133 / 135 40% 5 10.02.2028 -
Cauan Barros Vasco da Gama Active 131 / 143 40% 3 09.02.2028 -
Sergio Reguilón Inter Miami CF Active 136 / 148 40% 10 09.02.2028 -
Pablo Maia Bragantino Active 133 / 137 40% 2 09.02.2028 -
Vitinho Botafogo Active 135 / 127 40% 8 08.02.2028 -
Ryan Sessegnon Fulham Active 149 / 150 40% 4 08.02.2028 -
Thiago Maia Internacional Active 129 / 115 40% 4 07.02.2028 -
Riccardo Calafiori Hull City Active 163 / 178 40% 1 07.02.2028 -
Amadou Onana Aston Villa Active 165 / 160 40% 9 05.02.2028 -
Lucas Piton Vasco da Gama Active 140 / 145 40% 5 05.02.2028 -
Maximiliano Araújo Crystal Palace Active 150 / 150 40% 1 05.02.2028 -
Youssouf Fofana AC Milan Active 154 / 153 40% 2 03.02.2028 -
Gustavo Marques Bragantino Active 136 / 116 40% 3 03.02.2028 -
Mathías Villasanti Grêmio Active 134 / 126 40% 3 31.01.2028 -
Gustavo Martins Grêmio Active 132 / 133 40% 4 31.01.2028 -
Nicolás Domínguez Huddersfield Town Active 150 / 151 40% 1 31.01.2028 -
Pedro Porro Tottenham Active 154 / 155 40% 3 29.01.2028 -
Caio Alexandre Bahia Active 137 / 146 40% 4 29.01.2028 -
Christian Krasnodar Active 135 / 156 40% 3 27.01.2028 -
Marlon Grêmio Active 132 / 122 40% 1 27.01.2028 -
Jan Paul van Hecke Tottenham Active 163 / 153 40% 5 26.01.2028 -
Juninho Capixaba Bragantino Active 131 / 143 40% 1 26.01.2028 -
Lucas Veríssimo Santos Active 139 / 144 40% 5 24.01.2028 -
Bruno Gomes Internacional Active 129 / 141 40% 6 24.01.2028 -
Danilo Botafogo Active 137 / 142 40% 11 23.01.2028 -
Lyanco Atlético Mineiro Active 137 / 125 40% 7 23.01.2028 -
Shaq Moore FC Dallas Active 125 / 129 40% 4 23.01.2028 -
Aaron Herrera Charlotte Football Club Active 125 / 130 40% 3 22.01.2028 -
Mauro Arambarri River Plate Active 157 / 155 40% 3 15.01.2028 -
Matheus Bidu Corinthians Active 127 / 136 40% 8 14.01.2028 -
Pedro Henrique Bragantino Active 133 / 140 40% 1 14.01.2028 -
William Cruzeiro Active 139 / 120 40% 6 12.01.2028 -
Arthur Santos Active 141 / 129 40% 10 12.01.2028 -
Mateo Mendoza Godoy Cruz Active 128 / 124 40% 8 12.01.2028 -
Matheuzinho Corinthians Active 136 / 145 40% 1 11.01.2028 -
Santiago Sosa Vasco da Gama Active 137 / 126 40% 2 10.01.2028 -
Enzo Díaz Sport Recife Active 133 / 138 40% 4 07.01.2028 -
Juan Ignacio Nardoni Grêmio Active 130 / 144 40% 3 07.01.2028 -
Ángelo Preciado Atlético Mineiro Active 137 / 133 40% 4 04.01.2028 -
Santiago Sosa Vasco da Gama Lost 136 / 119 40% 6 27.12.2027 -
Juninho Capixaba Bragantino Lost 131 / 142 40% 4 27.12.2027 -
Erick Pulga Bahia Active 129 / 121 83% 1 27.12.2027 Approve
Gustavo Marques Bragantino Lost 132 / 144 40% 3 21.12.2027 -
Gustavo Martins Grêmio Lost 127 / 135 40% 7 21.12.2027 -
Matheuzinho Corinthians Lost 134 / 116 40% 3 13.12.2027 -
Pablo Maia Bragantino Lost 134 / 118 40% 1 13.12.2027 -
Alexandro Bernabei Internacional Lost 132 / 146 40% 5 02.12.2027 -
Marlon Grêmio Lost 134 / 134 40% 10 02.12.2027 -
Lucas Sanabria LA Galaxy Active 134 / 132 40% 4 02.12.2027 -
Naves Palmeiras Active 132 / 120 40% 4 01.12.2027 -
Mateo Cassierra Atlético Mineiro Active 134 / 135 83% 1 01.12.2027 Approve
Lewis Morgan SuperSport United Active 139 / 111 40% 1 30.11.2027 -
Igor Jesus Newcastle United Active 149 / 154 40% 1 30.11.2027 -
Ez Abde Girona Active 157 / 158 40% 1 30.11.2027 -
Igor Jesus Los Angeles Football Club Active 124 / 115 40% 1 28.11.2027 -
Axel Frugone Defensor Sporting Active 112 / 108 40% 1 28.11.2027 -
Brooke Norton-Cuffy Inter Miami CF Active 135 / 139 40% 2 26.11.2027 -
Renan Lodi Atlético Mineiro Active 143 / 140 40% 7 24.11.2027 -
Marcus Holmgren Pedersen Valerenga Active 131 / 143 40% 1 24.11.2027 -
Fabrício Bruno Cruzeiro Active 139 / 136 40% 4 22.11.2027 -
Franco Ibarra Rosario Central Active 131 / 138 40% 4 20.11.2027 -
Joel Poiso Penarol Active 108 / 121 40% 1 16.11.2027 -
Breno Bidon Corinthians Active 131 / 130 40% 2 15.11.2027 -
Tomás Porra Barracas Central Active 119 / 129 40% 1 15.11.2027 -
Conor Bradley Bristol City Active 163 / 142 40% 1 15.11.2027 -
Felipe Peña Biafore Lanús Active 128 / 122 40% 4 09.11.2027 -
Santiago González Tigre Active 129 / 140 40% 2 08.11.2027 -
Lucas Carrizo Newell's Old Boys Active 132 / 130 40% 1 06.11.2027 -
Nicolás Romero Minnesota United FC Active 133 / 134 40% 5 05.11.2027 -
Loïc Williams Colorado Rapids Active 130 / 136 40% 4 03.11.2027 -
Ayrton Costa Boca Juniors Active 133 / 119 40% 2 02.11.2027 -
Mbekezeli Mbokazi Chicago Fire Active 129 / 127 40% 1 02.11.2027 -
Gonzalo Montiel River Plate Active 134 / 120 40% 2 01.11.2027 -
Santiago Ramos Mingo Bahia Active 140 / 141 40% 2 22.10.2027 -
Teboho Mokoena Independiente Active 136 / 138 40% 3 21.10.2027 -
Bryan Ramírez FC Cincinnati Active 129 / 125 40% 4 20.10.2027 -
Khellven Palmeiras Active 138 / 143 40% 3 19.10.2027 -
Sondre Auklend Bodo/Glimt Active 135 / 129 40% 1 12.10.2027 -
Nicolás Tripichio San Lorenzo Active 126 / 116 40% 4 11.10.2027 -
Niklas Dorsch New York Red Bulls Active 134 / 135 40% 1 11.10.2027 -
Marcel Hartel St. Louis CITY SC Active 127 / 138 40% 1 07.10.2027 -
Dieguinho Ceará Active 132 / 134 40% 1 24.09.2027 -
Facundo Mura Inter Miami CF Active 129 / 129 40% 2 23.09.2027 -
Eduard Löwen San Jose Earthquakes Active 134 / 134 40% 1 23.09.2027 -
David Brekalo Orlando City Active 127 / 136 40% 2 13.09.2027 -
Victor Castillo Ceará Active 135 / 124 40% 1 06.09.2027 -
Damián Fernández Defensa y Justicia Active 126 / 122 40% 1 04.09.2027 -
Charles Pickel Sharjah Active 133 / 126 40% 1 30.08.2027 -
Mamadou Coulibaly Al Jazira Active 127 / 134 40% 1 29.08.2027 -
Pedro Malheiro Al Wasl Active 141 / 161 40% 1 29.08.2027 -
Miles Robinson FC Cincinnati Active 135 / 137 40% 1 28.08.2027 -
Willyan Rocha Al Jazira Active 130 / 135 40% 1 27.08.2027 -
Ismaël Bennacer Malmo FF Active 156 / 127 40% 1 24.08.2027 -
Bruno Fuchs Palmeiras Active 135 / 128 40% 1 24.08.2027 -
Keven Schlotterbeck FC Augsburg Active 147 / 136 40% 1 23.08.2027 -
Renato Tapia Al Wasl Active 136 / 137 40% 1 21.08.2027 -
Filippo Ranocchia Palermo Active 135 / 118 40% 1 20.08.2027 -
Giuseppe Pezzella Cremonese Active 131 / 138 40% 1 20.08.2027 -
Nadir Zortea Bologna Active 137 / 144 40% 1 20.08.2027 -
Curtis Jones Inter Active 157 / 160 40% 6 19.08.2027 -
Juan Miranda Bologna Active 151 / 143 40% 1 19.08.2027 -
Romano Floriani Mussolini Avellino Active 133 / 136 40% 1 19.08.2027 -
Trevoh Chalobah Como Active 158 / 149 40% 1 18.08.2027 -
Aleš Matějů Spezia Active 129 / 119 40% 1 18.08.2027 -
Adrià Altimira Deportivo La Coruña Active 140 / 133 40% 2 16.08.2027 -
Nicolò Rovella Lazio Active 157 / 166 40% 2 16.08.2027 -
Nuno Tavares Lazio Active 148 / 163 40% 1 16.08.2027 -
Fabio Gerli Modena Active 132 / 115 40% 1 14.08.2027 -
Daniel Tonoli Modena Active 132 / 117 40% 1 14.08.2027 -
Carlos Augusto Inter Active 153 / 142 40% 1 13.08.2027 -
Federico Dimarco Inter Active 170 / 165 40% 1 13.08.2027 -
Giorgio Scalvini Atalanta Active 159 / 170 40% 1 13.08.2027 -
Matteo Pessina Monza Active 136 / 149 40% 1 12.08.2027 -
Samuele Angori Pisa Active 137 / 132 40% 1 12.08.2027 -
Ethan Galbraith Swansea City Active 138 / 128 40% 11 08.08.2027 -
Tyler Adams Bournemouth Active 160 / 155 40% 5 08.08.2027 -
Hector Ramirez Newcastle United Active 152 / 165 40% 6 08.08.2027 -
Quinten Timber Crystal Palace Active 150 / 160 40% 2 07.08.2027 -
Milan van Ewijk Mansfield Town Active 142 / 128 40% 5 07.08.2027 -
Harry Clarke Preston Active 138 / 138 40% 8 06.08.2027 -
Azor Matusiwa Ipswich Town Active 141 / 150 40% 4 04.08.2027 -
Florentino Luís Ipswich Town Active 146 / 157 40% 9 03.08.2027 -
Hamza Choudhury Leicester City Active 130 / 114 40% 2 03.08.2027 -
Kristoffer Lund Birmingham Active 133 / 138 40% 3 02.08.2027 -
Mats Wieffer Brighton Active 156 / 145 40% 7 02.08.2027 -
Callum Doyle Wrexham Active 132 / 131 40% 7 31.07.2027 -
Saša Lukić Ipswich Town Active 144 / 148 40% 7 31.07.2027 -
Ross McCrorie Bristol City Active 137 / 137 40% 1 30.07.2027 -
Darlin Yongwa Norwich City Active 123 / 121 40% 1 30.07.2027 -
Max Bird Birmingham Active 133 / 143 40% 8 27.07.2027 -
Sven Botman Newcastle United Active 167 / 160 40% 6 26.07.2027 -
Adrien Truffert Bournemouth Active 155 / 149 40% 5 25.07.2027 -
Nordi Mukiele Sunderland Active 152 / 160 40% 5 25.07.2027 -
Dara O'Shea Ipswich Town Active 145 / 139 40% 4 23.07.2027 -
Paik Seung-Ho Birmingham Active 137 / 119 40% 1 23.07.2027 -
Noah Sadiki Sunderland Active 153 / 157 40% 5 22.07.2027 -
Femi Seriki Sheffield United Active 137 / 136 40% 1 22.07.2027 -
Derry Murkin Derby County Active 133 / 146 40% 4 21.07.2027 -
Michael Baidoo Plymouth Argyle Active 131 / 127 40% 2 21.07.2027 -
Igor Burnley Active 137 / 149 40% 3 20.07.2027 -
Callum Brittain Middlesbrough Active 136 / 125 40% 8 16.07.2027 -
Soungoutou Magassa West Ham United Active 140 / 127 40% 4 14.07.2027 -
Teden Mengi Luton Town Active 129 / 123 40% 1 14.07.2027 -
Welington Southampton Active 137 / 143 40% 11 11.07.2027 -
Toby Collyer West Bromwich Albion Active 140 / 153 40% 4 11.07.2027 -
Leif Davis Ipswich Town Active 138 / 153 40% 3 10.07.2027 -
Nicolas Madsen Queens Park Rangers Active 138 / 116 40% 2 09.07.2027 -
Anel Ahmedhodžić Burnley Active 141 / 150 40% 2 08.07.2027 -
Christos Mouzakitis Hull City Active 133 / 131 40% 2 07.07.2027 -
Ben Sheaf Wrexham Active 129 / 140 40% 1 07.07.2027 -
Kenny Tete Fulham Active 140 / 137 40% 7 05.07.2027 -
Benjamin White Arsenal Active 158 / 142 40% 6 05.07.2027 -
Alfie Doughty Millwall Active 130 / 145 40% 1 05.07.2027 -
Aidan Morris Middlesbrough Active 129 / 122 40% 1 01.07.2027 -
Shea Charles Southampton Active 139 / 148 40% 6 30.06.2027 -
Luke McNally Bristol City Active 131 / 135 40% 3 29.06.2027 -
Anton Stach Leeds United Active 152 / 151 40% 2 22.06.2027 -
Nathan Collins Brentford Active 150 / 148 40% 1 22.06.2027 -
Jake O'Brien Everton Active 145 / 164 40% 1 13.06.2027 -
Kyle Walker-Peters West Ham United Active 140 / 129 40% 3 08.06.2027 -
Micky van de Ven Tottenham Active 163 / 165 40% 1 05.06.2027 -
Negueba Mirassol Active 130 / 133 79% 1 03.06.2027 Approve
Xaver Schlager Nottingham Forest Active 151 / 159 40% 4 02.06.2027 -
Michele Cerofolini Bari Active 136 / 128 40% 1 31.05.2027 -
Juanlu Bournemouth Active 146 / 151 40% 1 30.05.2027 -
Conor Gallagher Tottenham Active 153 / 159 40% 1 25.05.2027 -
Alessandro Buongiorno Sassuolo Active 151 / 172 40% 1 19.05.2027 -
Adam Randell Bristol City Active 124 / 120 40% 1 19.05.2027 -
Japhet Tanganga Sheffield United Active 138 / 114 40% 1 09.05.2027 -
Pierre Kalulu Juventus Active 158 / 164 40% 2 05.05.2027 -
Leon Goretzka Aston Villa Active 160 / 144 40% 3 28.04.2027 -
Víctor Gómez Braga Active 141 / 149 40% 12 24.04.2027 -
Dinis Pinto Moreirense Active 134 / 119 40% 11 21.04.2027 -
Javi Sánchez Arouca Active 133 / 136 40% 6 21.04.2027 -
João Palhinha Benfica Active 147 / 157 40% 5 19.04.2027 -
Jordan Holsgrove Estoril Praia Active 132 / 129 40% 8 19.04.2027 -
Luís Esteves Atlas Active 130 / 125 40% 8 17.04.2027 -
Iván Fresneda Sporting CP Active 139 / 140 40% 7 16.04.2027 -
Hwang In-Beom Porto Active 151 / 125 40% 9 14.04.2027 -
Renato Sanches AVS Active 126 / 122 40% 9 13.04.2027 -
Bright Arrey-Mbi Braga Active 127 / 135 40% 4 12.04.2027 -
João Simões Sporting CP Active 136 / 123 40% 6 12.04.2027 -
Toti Wolverhampton Active 137 / 136 40% 1 12.04.2027 -
Rodrigo Pinheiro Famalicao Active 134 / 147 40% 9 10.04.2027 -
Francisco Moura Lusitânia Lourosa Active 134 / 127 40% 6 07.04.2027 -
Zeno Debast Sporting CP Active 138 / 153 40% 1 07.04.2027 -
Mathias De Amorim Famalicao Active 131 / 150 40% 1 01.04.2027 -
Sikou Niakaté Braga Active 131 / 126 40% 5 31.03.2027 -
Jesús Angulo Tigres Active 135 / 136 40% 4 31.03.2027 -
Alberto Costa Porto Active 149 / 145 40% 7 26.03.2027 -
Kevin Álvarez Club America Active 134 / 120 40% 2 16.03.2027 -
Alan Varela Porto Active 138 / 161 40% 1 09.03.2027 -
Gerardo Arteaga Monterrey Active 132 / 141 40% 3 07.03.2027 -
Joaquim Tigres Active 133 / 139 40% 4 06.03.2027 -
Nahuel Tenaglia Tigres Active 132 / 135 40% 1 28.02.2027 -
Fidel Ambríz Monterrey Active 132 / 135 40% 1 28.02.2027 -
Gonçalo Inácio Sporting CP Active 143 / 157 40% 7 27.02.2027 -
Gonzalo Piovi Cruz Azul Active 130 / 142 40% 5 26.02.2027 -
Andrew Robertson Tottenham Active 156 / 165 40% 1 26.02.2027 -
John Stones Inter Active 158 / 147 40% 1 25.02.2027 -
James Garner Everton Active 154 / 160 40% 1 23.02.2027 -
Jan Bednarek Porto Active 146 / 159 40% 2 21.02.2027 -
Richard Ledezma Guadalajara Active 140 / 129 40% 1 21.02.2027 -
Jesús Orozco Chiquete Cruz Azul Active 127 / 138 40% 2 19.02.2027 -
Kevin Vazquez Cruz Azul Active 131 / 143 40% 1 17.02.2027 -
Adonis Frías Atlas Active 127 / 127 40% 1 15.02.2027 -
Rubén Duarte Legia Active 124 / 127 40% 1 12.02.2027 -
Ilay Camara Anderlecht Active 132 / 128 40% 1 07.02.2027 -
Lukáš Červ Viktoria Plzen Active 134 / 124 40% 1 06.02.2027 -
Eduardo Quaresma Sporting CP Active 139 / 159 40% 1 02.02.2027 -
Sander Berge Fulham Active 147 / 160 40% 1 29.01.2027 -
Pablo Rosario Porto Active 146 / 120 40% 3 18.01.2027 -
Tomás Araújo Benfica Active 150 / 161 40% 2 18.01.2027 -
Gustaf Lagerbielke Braga Active 132 / 124 40% 1 04.01.2027 -
Lucas Romero Cruzeiro Active 129 / 135 40% 1 04.01.2027 -
Reinildo Sunderland Active 141 / 156 40% 2 02.01.2027 -
Sabino Sport Recife Active 126 / 119 40% 1 23.12.2026 -
Stanislav Agkatsev Sunderland Negotiating 132 / 133 66% 1 01.12.2026 Approve
Léo Jardim Vasco da Gama Active 141 / 122 40% 5 29.11.2026 -
Mads Hermansen West Ham United Active 133 / 139 40% 6 28.11.2026 -
Jean America de Cali Active 126 / 127 40% 5 28.11.2026 -
Barış Alper Yılmaz Galatasaray Active 148 / 143 40% 2 27.11.2026 -
Facundo Cambeses Racing Club Active 132 / 114 40% 10 27.11.2026 -
Ivan Toney Al-Ahli Active 143 / 130 40% 2 27.11.2026 -
Jonathan Fischer FC Metz Active 135 / 131 40% 2 27.11.2026 -
Yehvann Diouf OGC Nice Active 138 / 137 40% 2 23.11.2026 -
Dean Henderson Crystal Palace Active 152 / 151 40% 9 22.11.2026 -
Gabriel Jesus Barcelona Active 163 / 154 40% 2 22.11.2026 -
Mateo Pellegrino Fiorentina Active 137 / 122 40% 1 22.11.2026 -
Fernando Tapia Club America Active 129 / 128 40% 1 22.11.2026 -
Caoimhin Kelleher Brentford Active 143 / 162 40% 10 21.11.2026 -
Erick Reyes Toluca Active 142 / 148 40% 5 20.11.2026 -
Christian Walton Ipswich Town Active 130 / 121 40% 6 18.11.2026 -
Soufiane Rahimi Guadalajara Active 141 / 131 40% 2 18.11.2026 -
Ignacio de Arruabarrena Arouca Active 121 / 135 40% 2 15.11.2026 -
Luka Jović AEK Active 136 / 148 40% 1 14.11.2026 -
Joaquín Panichelli Le Havre AC Active 150 / 154 40% 2 12.11.2026 -
Adnan Courtois KV Oostende Active 133 / 139 40% 1 12.11.2026 -
Bernardo Fontes Braga Active 120 / 114 40% 1 12.11.2026 -
Arijanet Murić Sassuolo Active 140 / 118 40% 3 10.11.2026 Monitor
Cezary Miszta Rio Ave Active 125 / 144 40% 3 08.11.2026 -
Matěj Kovář PSV Active 138 / 150 40% 2 08.11.2026 -
Geny Sporting CP Active 141 / 145 40% 2 06.11.2026 -
Carlos Miguel Palmeiras Active 135 / 120 40% 3 06.11.2026 -
Heorhii Sudakov Benfica Active 143 / 128 40% 1 05.11.2026 -
Oussama Idrissi Pachuca Active 140 / 147 40% 1 05.11.2026 -
Robin Roefs Sunderland Active 135 / 150 40% 5 04.11.2026 -
Tomás Marchiori Vélez Active 130 / 123 40% 6 04.11.2026 -
Carlos Moreno Pachuca Active 128 / 124 40% 7 02.11.2026 -
Mike Maignan AC Milan Active 163 / 164 40% 2 01.11.2026 -
Tomoki Hayakawa Kashima Antlers Active 144 / 147 40% 6 31.10.2026 -
Hugo Souza Corinthians Active 139 / 121 40% 8 31.10.2026 -
Andreas Pereira Palmeiras Active 147 / 136 40% 1 31.10.2026 -
Gabriel Batista Botafogo Active 123 / 117 40% 4 30.10.2026 -
Ángel Correa River Plate Active 146 / 155 40% 3 29.10.2026 -
Santiago Castro AS Roma Active 152 / 166 40% 1 29.10.2026 -
Uğurcan Çakır Braga Active 141 / 124 40% 1 26.10.2026 -
Keisuke Osako Sanfrecce Hiroshima Active 135 / 154 40% 2 25.10.2026 -
Randal Kolo Muani Juventus Active 149 / 150 40% 1 25.10.2026 -
Youssef En-Nesyri Al-Ittihad Active 136 / 119 40% 1 25.10.2026 -
Romelu Castagne KV Oostende Active 140 / 139 40% 1 25.10.2026 -
Dodi Lukébakio Benfica Active 145 / 129 40% 2 24.10.2026 -
Esteban Lepaul Stade Rennais Active 133 / 142 40% 1 24.10.2026 -
Zack Steffen Spartak Moscow Active 127 / 132 40% 4 20.10.2026 -
Matt Freese New York City Active 133 / 128 40% 3 17.10.2026 -
Alexander Nübel Besiktas Active 141 / 123 40% 2 17.10.2026 -
Ryosuke Kojima Kashiwa Reysol Active 132 / 109 40% 1 15.10.2026 -
Lazar Carević Famalicao Active 124 / 126 40% 4 11.10.2026 -
Gonzalo Crettaz NEC Active 126 / 110 40% 1 06.10.2026 -
Radek Vítek Middlesbrough Active 128 / 117 40% 4 03.10.2026 -
Hany Mukhtar Spezia Active 132 / 146 40% 1 02.10.2026 -
Rubén Blanco Yokohama F. Marinos Active 128 / 108 40% 1 28.09.2026 -
Jindřich Staněk KAA Gent Active 136 / 147 40% 1 27.09.2026 -
Predrag Rajković Racing Genk Active 135 / 151 40% 1 23.09.2026 -
Alex Meret Napoli Active 144 / 149 40% 2 17.09.2026 -
Michael Cooper Sheffield United Active 120 / 144 40% 1 16.09.2026 -
Fredrik Aursnes Benfica Active 153 / 143 40% 1 16.09.2026 -
Nikola Vasilj Al-Diriyah Active 143 / 156 40% 2 13.09.2026 -
Kepa Arrizabalaga Arsenal Active 149 / 134 40% 3 13.09.2026 -
Musa Barrow Al-Khaleej Active 143 / 123 40% 1 13.09.2026 -
Roberto Fernández Braga Active 134 / 122 40% 1 13.09.2026 -
James Trafford Leeds United Active 133 / 137 40% 3 08.09.2026 -
Donyell Malen AS Roma Active 150 / 131 40% 1 08.09.2026 -
Alex Iwobi Fulham Active 140 / 140 40% 1 04.09.2026 -
Dominik Greif Olympique Lyonnais Active 132 / 151 40% 1 31.08.2026 -
Matvey Safonov Paris Saint-Germain Active 157 / 156 40% 1 29.08.2026 -
Kasper Dolberg Ajax Active 142 / 127 40% 1 27.08.2026 -
Kerem Aktürkoğlu Fenerbahce Active 139 / 160 40% 1 20.08.2026 -
Giacomo Raspadori Atalanta Active 142 / 134 40% 1 14.08.2026 -
Rodrigo Garro Corinthians Active 136 / 130 40% 1 13.08.2026 -
Maduka Okoye Udinese Active 133 / 133 40% 1 13.08.2026 -
Martin Jedlička Banik Ostrava Active 122 / 143 40% 1 12.08.2026 -
Michael Zetterer Leeds United Active 128 / 145 40% 2 07.08.2026 -
Antonio Sivera Alavés Active 140 / 145 40% 2 05.08.2026 -
Iván Martín Racing Santander Active 145 / 131 40% 1 05.08.2026 -
Gorka Guruzeta Athletic Bilbao Active 146 / 134 40% 1 05.08.2026 -
Santi Comesaña Villarreal Active 146 / 162 40% 1 05.08.2026 -
Augusto Batalla Rayo Vallecano Active 150 / 135 40% 1 02.08.2026 -